sensor_id;sensor_type;location;lat;lon;timestamp;pressure;altitude;pressure_sealevel;temperature;humidity
43711;BME280;29309;42.682;23.372;2023-02-22T00:01:31;95196.81;;;7.17;49.54
43711;BME280;29309;42.682;23.372;2023-02-22T00:04:04;95198.63;;;7.24;49.37
43711;BME280;29309;42.682;23.372;2023-02-22T00:06:31;95182.28;;;7.16;49.56
43711;BME280;29309;42.682;23.372;2023-02-22T00:08:57;95186.50;;;7.17;49.99
43711;BME280;29309;42.682;23.372;2023-02-22T00:11:23;95196.84;;;7.28;49.94
43711;BME280;29309;42.682;23.372;2023-02-22T00:13:49;95200.44;;;7.31;49.69
43711;BME280;29309;42.682;23.372;2023-02-22T00:16:20;95192.41;;;7.35;49.91
43711;BME280;29309;42.682;23.372;2023-02-22T00:18:47;95196.03;;;7.37;49.59
43711;BME280;29309;42.682;23.372;2023-02-22T00:21:13;95199.84;;;7.32;49.73
43711;BME280;29309;42.682;23.372;2023-02-22T00:23:44;95204.91;;;7.36;50.16
43711;BME280;29309;42.682;23.372;2023-02-22T00:26:15;95193.38;;;7.39;49.90
43711;BME280;29309;42.682;23.372;2023-02-22T00:28:43;95196.50;;;7.34;50.27
43711;BME280;29309;42.682;23.372;2023-02-22T00:31:09;95191.94;;;7.38;50.12
43711;BME280;29309;42.682;23.372;2023-02-22T00:33:35;95190.50;;;7.37;50.24
43711;BME280;29309;42.682;23.372;2023-02-22T00:36:02;95187.38;;;7.43;50.12
43711;BME280;29309;42.682;23.372;2023-02-22T00:38:28;95191.94;;;7.38;50.29
43711;BME280;29309;42.682;23.372;2023-02-22T00:40:53;95192.66;;;7.39;50.59
43711;BME280;29309;42.682;23.372;2023-02-22T00:43:19;95186.41;;;7.38;50.03
43711;BME280;29309;42.682;23.372;2023-02-22T00:45:45;95182.34;;;7.39;50.48
43711;BME280;29309;42.682;23.372;2023-02-22T00:48:10;95183.78;;;7.40;50.75
43711;BME280;29309;42.682;23.372;2023-02-22T00:50:36;95184.75;;;7.45;50.30
43711;BME280;29309;42.682;23.372;2023-02-22T00:53:03;95175.28;;;7.48;49.98
43711;BME280;29309;42.682;23.372;2023-02-22T00:55:31;95172.75;;;7.40;50.26
43711;BME280;29309;42.682;23.372;2023-02-22T00:57:57;95175.84;;;7.23;50.70
43711;BME280;29309;42.682;23.372;2023-02-22T01:00:26;95166.69;;;7.21;50.95
43711;BME280;29309;42.682;23.372;2023-02-22T01:02:52;95170.19;;;7.21;51.20
43711;BME280;29309;42.682;23.372;2023-02-22T01:05:21;95169.13;;;7.26;51.10
43711;BME280;29309;42.682;23.372;2023-02-22T01:07:48;95168.66;;;7.30;51.25
43711;BME280;29309;42.682;23.372;2023-02-22T01:10:14;95162.03;;;7.35;50.93
43711;BME280;29309;42.682;23.372;2023-02-22T01:12:40;95157.38;;;7.37;50.61
43711;BME280;29309;42.682;23.372;2023-02-22T01:15:07;95162.75;;;7.35;51.25
43711;BME280;29309;42.682;23.372;2023-02-22T01:17:37;95161.44;;;7.36;50.66
43711;BME280;29309;42.682;23.372;2023-02-22T01:20:05;95155.31;;;7.38;51.03
43711;BME280;29309;42.682;23.372;2023-02-22T01:22:38;95156.03;;;7.38;50.67
43711;BME280;29309;42.682;23.372;2023-02-22T01:25:04;95151.47;;;7.31;51.38
43711;BME280;29309;42.682;23.372;2023-02-22T01:27:32;95147.50;;;7.23;52.11
43711;BME280;29309;42.682;23.372;2023-02-22T01:29:58;95156.13;;;7.17;52.43
43711;BME280;29309;42.682;23.372;2023-02-22T01:32:23;95153.72;;;7.12;52.25
43711;BME280;29309;42.682;23.372;2023-02-22T01:34:52;95148.44;;;7.04;52.27
43711;BME280;29309;42.682;23.372;2023-02-22T01:37:17;95153.69;;;7.00;52.43
43711;BME280;29309;42.682;23.372;2023-02-22T01:39:43;95151.97;;;6.95;52.15
43711;BME280;29309;42.682;23.372;2023-02-22T01:42:08;95160.56;;;6.78;53.90
43711;BME280;29309;42.682;23.372;2023-02-22T01:44:36;95153.34;;;6.73;52.52
43711;BME280;29309;42.682;23.372;2023-02-22T01:47:04;95158.63;;;6.69;53.32
43711;BME280;29309;42.682;23.372;2023-02-22T01:49:38;95158.50;;;6.67;53.31
43711;BME280;29309;42.682;23.372;2023-02-22T01:52:07;95159.31;;;6.58;53.14
43711;BME280;29309;42.682;23.372;2023-02-22T01:54:38;95162.25;;;6.50;53.43
43711;BME280;29309;42.682;23.372;2023-02-22T01:57:26;95161.16;;;6.43;53.40
43711;BME280;29309;42.682;23.372;2023-02-22T02:00:07;95158.72;;;6.38;53.96
43711;BME280;29309;42.682;23.372;2023-02-22T02:02:37;95157.88;;;6.35;54.00
43711;BME280;29309;42.682;23.372;2023-02-22T02:05:05;95159.91;;;6.35;53.86
43711;BME280;29309;42.682;23.372;2023-02-22T02:07:33;95159.78;;;6.33;53.76
43711;BME280;29309;42.682;23.372;2023-02-22T02:10:02;95163.84;;;6.32;54.02
43711;BME280;29309;42.682;23.372;2023-02-22T02:12:30;95164.31;;;6.28;54.21
43711;BME280;29309;42.682;23.372;2023-02-22T02:15:26;95164.44;;;6.30;54.02
43711;BME280;29309;42.682;23.372;2023-02-22T02:18:01;95163.69;;;6.30;54.19
43711;BME280;29309;42.682;23.372;2023-02-22T02:29:45;95170.88;;;6.23;54.31
43711;BME280;29309;42.682;23.372;2023-02-22T02:38:09;95174.53;;;6.16;54.81
43711;BME280;29309;42.682;23.372;2023-02-22T02:46:10;95180.50;;;6.13;54.85
43711;BME280;29309;42.682;23.372;2023-02-22T02:48:40;95174.25;;;6.12;55.18
43711;BME280;29309;42.682;23.372;2023-02-22T02:51:10;95175.91;;;6.06;55.49
43711;BME280;29309;42.682;23.372;2023-02-22T02:53:41;95179.97;;;6.05;56.24
43711;BME280;29309;42.682;23.372;2023-02-22T02:56:09;95179.25;;;6.04;56.25
43711;BME280;29309;42.682;23.372;2023-02-22T02:58:44;95177.94;;;6.05;56.64
43711;BME280;29309;42.682;23.372;2023-02-22T03:01:12;95181.56;;;6.08;56.61
43711;BME280;29309;42.682;23.372;2023-02-22T03:14:24;95183.38;;;5.84;57.58
43711;BME280;29309;42.682;23.372;2023-02-22T03:16:58;95181.94;;;5.83;57.84
43711;BME280;29309;42.682;23.372;2023-02-22T03:19:31;95179.91;;;5.83;57.80
43711;BME280;29309;42.682;23.372;2023-02-22T03:22:11;95185.00;;;5.87;58.07
43711;BME280;29309;42.682;23.372;2023-02-22T03:25:06;95178.19;;;5.88;57.87
43711;BME280;29309;42.682;23.372;2023-02-22T03:27:37;95171.06;;;5.85;58.12
43711;BME280;29309;42.682;23.372;2023-02-22T03:30:11;95180.94;;;5.88;58.23
43711;BME280;29309;42.682;23.372;2023-02-22T03:32:43;95187.44;;;5.92;58.18
43711;BME280;29309;42.682;23.372;2023-02-22T03:35:15;95179.63;;;5.89;57.72
43711;BME280;29309;42.682;23.372;2023-02-22T03:37:45;95189.31;;;5.90;57.84
43711;BME280;29309;42.682;23.372;2023-02-22T03:40:20;95177.59;;;5.89;57.97
43711;BME280;29309;42.682;23.372;2023-02-22T03:42:54;95181.22;;;5.92;58.04
43711;BME280;29309;42.682;23.372;2023-02-22T03:45:23;95190.19;;;5.92;58.16
43711;BME280;29309;42.682;23.372;2023-02-22T03:47:59;95184.53;;;5.90;58.26
43711;BME280;29309;42.682;23.372;2023-02-22T03:50:33;95182.97;;;5.87;58.71
43711;BME280;29309;42.682;23.372;2023-02-22T03:52:59;95183.69;;;5.88;58.26
43711;BME280;29309;42.682;23.372;2023-02-22T03:55:25;95187.75;;;5.87;58.65
43711;BME280;29309;42.682;23.372;2023-02-22T03:58:01;95190.34;;;5.85;58.87
43711;BME280;29309;42.682;23.372;2023-02-22T04:00:31;95183.38;;;5.84;58.58
43711;BME280;29309;42.682;23.372;2023-02-22T04:02:58;95180.50;;;5.82;58.41
43711;BME280;29309;42.682;23.372;2023-02-22T04:05:24;95181.81;;;5.81;59.03
43711;BME280;29309;42.682;23.372;2023-02-22T04:07:55;95189.81;;;5.77;59.22
43711;BME280;29309;42.682;23.372;2023-02-22T04:10:22;95188.22;;;5.74;59.58
43711;BME280;29309;42.682;23.372;2023-02-22T04:12:48;95186.06;;;5.72;59.84
43711;BME280;29309;42.682;23.372;2023-02-22T04:15:17;95186.06;;;5.72;60.03
43711;BME280;29309;42.682;23.372;2023-02-22T04:17:43;95183.03;;;5.68;59.68
43711;BME280;29309;42.682;23.372;2023-02-22T04:20:09;95187.41;;;5.62;59.92
43711;BME280;29309;42.682;23.372;2023-02-22T04:22:35;95182.50;;;5.60;58.70
43711;BME280;29309;42.682;23.372;2023-02-22T04:25:01;95185.53;;;5.55;58.36
43711;BME280;29309;42.682;23.372;2023-02-22T04:27:26;95194.53;;;5.55;57.90
43711;BME280;29309;42.682;23.372;2023-02-22T04:29:52;95194.97;;;5.52;58.35
43711;BME280;29309;42.682;23.372;2023-02-22T04:32:17;95196.28;;;5.51;58.61
43711;BME280;29309;42.682;23.372;2023-02-22T04:34:42;95200.34;;;5.50;58.40
43711;BME280;29309;42.682;23.372;2023-02-22T04:37:08;95195.59;;;5.40;58.98
43711;BME280;29309;42.682;23.372;2023-02-22T04:39:34;95201.72;;;5.29;60.96
43711;BME280;29309;42.682;23.372;2023-02-22T04:42:00;95197.94;;;5.25;60.69
43711;BME280;29309;42.682;23.372;2023-02-22T04:44:25;95191.59;;;5.22;59.47
43711;BME280;29309;42.682;23.372;2023-02-22T04:46:50;95190.72;;;5.20;58.92
43711;BME280;29309;42.682;23.372;2023-02-22T04:49:16;95192.63;;;5.17;58.92
43711;BME280;29309;42.682;23.372;2023-02-22T04:51:42;95185.38;;;5.12;60.15
43711;BME280;29309;42.682;23.372;2023-02-22T04:54:07;95187.97;;;5.10;59.23
43711;BME280;29309;42.682;23.372;2023-02-22T04:56:33;95191.91;;;5.07;58.82
43711;BME280;29309;42.682;23.372;2023-02-22T04:58:58;95190.03;;;5.00;59.16
43711;BME280;29309;42.682;23.372;2023-02-22T05:01:24;95194.81;;;5.00;59.24
43711;BME280;29309;42.682;23.372;2023-02-22T05:03:50;95198.16;;;4.98;59.46
43711;BME280;29309;42.682;23.372;2023-02-22T05:06:16;95198.72;;;4.96;59.25
43711;BME280;29309;42.682;23.372;2023-02-22T05:08:42;95199.31;;;4.95;59.26
43711;BME280;29309;42.682;23.372;2023-02-22T05:11:07;95205.09;;;4.89;59.50
43711;BME280;29309;42.682;23.372;2023-02-22T05:13:34;95200.19;;;4.88;59.81
43711;BME280;29309;42.682;23.372;2023-02-22T05:15:59;95203.97;;;4.83;59.74
43711;BME280;29309;42.682;23.372;2023-02-22T05:18:25;95202.38;;;4.80;60.03
43711;BME280;29309;42.682;23.372;2023-02-22T05:20:50;95207.88;;;4.80;60.07
43711;BME280;29309;42.682;23.372;2023-02-22T05:23:16;95208.88;;;4.75;60.10
43711;BME280;29309;42.682;23.372;2023-02-22T05:25:41;95201.50;;;4.68;60.47
43711;BME280;29309;42.682;23.372;2023-02-22T05:28:10;95208.47;;;4.69;60.28
43711;BME280;29309;42.682;23.372;2023-02-22T05:30:37;95215.41;;;4.70;60.48
43711;BME280;29309;42.682;23.372;2023-02-22T05:33:05;95214.53;;;4.67;60.39
43711;BME280;29309;42.682;23.372;2023-02-22T05:35:31;95228.69;;;4.64;60.99
43711;BME280;29309;42.682;23.372;2023-02-22T05:37:57;95221.06;;;4.62;60.88
43711;BME280;29309;42.682;23.372;2023-02-22T05:40:25;95236.69;;;4.69;61.00
43711;BME280;29309;42.682;23.372;2023-02-22T05:42:51;95244.78;;;4.77;60.88
43711;BME280;29309;42.682;23.372;2023-02-22T05:45:19;95241.03;;;4.91;60.78
43711;BME280;29309;42.682;23.372;2023-02-22T05:47:45;95244.63;;;5.13;60.83
43711;BME280;29309;42.682;23.372;2023-02-22T05:50:11;95244.41;;;5.40;59.63
43711;BME280;29309;42.682;23.372;2023-02-22T05:52:36;95246.13;;;5.64;58.66
43711;BME280;29309;42.682;23.372;2023-02-22T05:55:04;95240.84;;;5.78;57.58
43711;BME280;29309;42.682;23.372;2023-02-22T05:57:29;95248.53;;;5.70;57.87
43711;BME280;29309;42.682;23.372;2023-02-22T05:59:55;95247.47;;;5.84;57.67
43711;BME280;29309;42.682;23.372;2023-02-22T06:02:21;95249.41;;;6.13;56.94
43711;BME280;29309;42.682;23.372;2023-02-22T06:04:46;95249.84;;;6.40;55.91
43711;BME280;29309;42.682;23.372;2023-02-22T06:07:13;95246.72;;;6.76;54.80
43711;BME280;29309;42.682;23.372;2023-02-22T06:09:39;95252.53;;;6.92;53.88
43711;BME280;29309;42.682;23.372;2023-02-22T06:12:05;95251.06;;;7.12;53.66
43711;BME280;29309;42.682;23.372;2023-02-22T06:14:30;95254.41;;;7.43;53.27
43711;BME280;29309;42.682;23.372;2023-02-22T06:16:56;95249.44;;;7.86;52.27
43711;BME280;29309;42.682;23.372;2023-02-22T06:19:22;95252.56;;;8.27;50.66
43711;BME280;29309;42.682;23.372;2023-02-22T06:21:53;95243.28;;;8.58;49.34
43711;BME280;29309;42.682;23.372;2023-02-22T06:24:20;95246.25;;;8.85;48.80
43711;BME280;29309;42.682;23.372;2023-02-22T06:26:50;95245.72;;;9.00;47.69
43711;BME280;29309;42.682;23.372;2023-02-22T06:29:18;95251.81;;;9.35;47.51
43711;BME280;29309;42.682;23.372;2023-02-22T06:31:43;95251.25;;;9.76;46.63
43711;BME280;29309;42.682;23.372;2023-02-22T06:34:09;95242.06;;;10.12;45.30
43711;BME280;29309;42.682;23.372;2023-02-22T06:36:35;95246.75;;;10.49;44.01
43711;BME280;29309;42.682;23.372;2023-02-22T06:39:01;95251.53;;;10.75;43.66
43711;BME280;29309;42.682;23.372;2023-02-22T06:41:27;95254.84;;;11.15;42.69
43711;BME280;29309;42.682;23.372;2023-02-22T06:43:52;95251.03;;;11.51;43.91
43711;BME280;29309;42.682;23.372;2023-02-22T06:46:18;95256.97;;;11.89;42.54
43711;BME280;29309;42.682;23.372;2023-02-22T06:48:45;95245.47;;;12.27;40.97
43711;BME280;29309;42.682;23.372;2023-02-22T06:51:10;95251.34;;;12.67;40.25
43711;BME280;29309;42.682;23.372;2023-02-22T06:53:36;95254.22;;;13.02;39.49
43711;BME280;29309;42.682;23.372;2023-02-22T06:56:01;95252.94;;;13.39;38.72
43711;BME280;29309;42.682;23.372;2023-02-22T06:58:27;95253.50;;;13.70;37.83
43711;BME280;29309;42.682;23.372;2023-02-22T07:00:53;95247.56;;;13.98;37.69
43711;BME280;29309;42.682;23.372;2023-02-22T07:03:22;95251.09;;;14.36;37.06
43711;BME280;29309;42.682;23.372;2023-02-22T07:05:50;95250.75;;;14.65;35.76
43711;BME280;29309;42.682;23.372;2023-02-22T07:08:16;95240.25;;;14.85;35.32
43711;BME280;29309;42.682;23.372;2023-02-22T07:10:41;95252.25;;;15.09;34.96
43711;BME280;29309;42.682;23.372;2023-02-22T07:13:07;95252.69;;;15.23;34.15
43711;BME280;29309;42.682;23.372;2023-02-22T07:15:34;95251.75;;;15.37;34.51
43711;BME280;29309;42.682;23.372;2023-02-22T07:18:00;95252.22;;;15.51;34.50
43711;BME280;29309;42.682;23.372;2023-02-22T07:20:29;95255.59;;;15.69;35.38
43711;BME280;29309;42.682;23.372;2023-02-22T07:22:54;95250.84;;;15.97;33.40
43711;BME280;29309;42.682;23.372;2023-02-22T07:25:21;95250.50;;;16.09;32.73
43711;BME280;29309;42.682;23.372;2023-02-22T07:27:47;95250.97;;;16.01;32.57
43711;BME280;29309;42.682;23.372;2023-02-22T07:30:28;95252.91;;;15.95;32.97
43711;BME280;29309;42.682;23.372;2023-02-22T07:32:57;95246.88;;;16.04;32.74
43711;BME280;29309;42.682;23.372;2023-02-22T07:37:50;95248.59;;;16.15;32.51
43711;BME280;29309;42.682;23.372;2023-02-22T07:40:16;95235.28;;;16.40;32.27
43711;BME280;29309;42.682;23.372;2023-02-22T07:43:04;95234.50;;;16.61;31.84
43711;BME280;29309;42.682;23.372;2023-02-22T07:45:32;95236.81;;;16.68;33.09
43711;BME280;29309;42.682;23.372;2023-02-22T07:47:59;95245.88;;;16.93;33.11
43711;BME280;29309;42.682;23.372;2023-02-22T07:50:27;95246.94;;;17.07;31.25
43711;BME280;29309;42.682;23.372;2023-02-22T07:52:56;95242.75;;;17.08;33.10
43711;BME280;29309;42.682;23.372;2023-02-22T07:55:25;95238.78;;;17.45;30.97
43711;BME280;29309;42.682;23.372;2023-02-22T07:57:52;95247.22;;;17.75;32.17
43711;BME280;29309;42.682;23.372;2023-02-22T08:00:27;95232.25;;;17.96;30.24
43711;BME280;29309;42.682;23.372;2023-02-22T08:02:53;95239.63;;;18.11;29.38
43711;BME280;29309;42.682;23.372;2023-02-22T08:05:21;95231.56;;;18.30;29.44
43711;BME280;29309;42.682;23.372;2023-02-22T08:07:47;95230.88;;;18.31;29.81
43711;BME280;29309;42.682;23.372;2023-02-22T08:10:14;95228.75;;;18.63;29.08
43711;BME280;29309;42.682;23.372;2023-02-22T08:12:40;95225.34;;;18.69;29.16
43711;BME280;29309;42.682;23.372;2023-02-22T08:15:08;95230.78;;;18.95;29.47
43711;BME280;29309;42.682;23.372;2023-02-22T08:17:34;95231.59;;;19.03;27.74
43711;BME280;29309;42.682;23.372;2023-02-22T08:20:00;95214.41;;;19.25;27.48
43711;BME280;29309;42.682;23.372;2023-02-22T08:22:25;95214.78;;;19.47;27.26
43711;BME280;29309;42.682;23.372;2023-02-22T08:24:53;95224.41;;;19.76;26.86
43711;BME280;29309;42.682;23.372;2023-02-22T08:27:24;95216.09;;;19.86;26.59
43711;BME280;29309;42.682;23.372;2023-02-22T08:29:50;95218.31;;;19.94;27.18
43711;BME280;29309;42.682;23.372;2023-02-22T08:32:15;95219.94;;;20.07;26.06
43711;BME280;29309;42.682;23.372;2023-02-22T08:34:41;95211.66;;;20.21;26.17
43711;BME280;29309;42.682;23.372;2023-02-22T08:37:10;95208.06;;;20.17;26.37
43711;BME280;29309;42.682;23.372;2023-02-22T08:39:35;95206.16;;;20.29;26.36
43711;BME280;29309;42.682;23.372;2023-02-22T08:42:01;95202.78;;;20.43;26.29
43711;BME280;29309;42.682;23.372;2023-02-22T08:44:26;95202.16;;;20.48;25.64
43711;BME280;29309;42.682;23.372;2023-02-22T08:46:52;95204.47;;;20.66;25.58
43711;BME280;29309;42.682;23.372;2023-02-22T08:49:17;95207.38;;;20.72;25.53
43711;BME280;29309;42.682;23.372;2023-02-22T08:51:44;95198.09;;;20.61;25.42
43711;BME280;29309;42.682;23.372;2023-02-22T08:54:10;95192.44;;;20.63;26.09
43711;BME280;29309;42.682;23.372;2023-02-22T08:56:36;95202.44;;;20.73;28.24
43711;BME280;29309;42.682;23.372;2023-02-22T09:01:45;95197.63;;;20.85;27.03
43711;BME280;29309;42.682;23.372;2023-02-22T09:04:10;95192.75;;;20.90;27.54
43711;BME280;29309;42.682;23.372;2023-02-22T09:06:39;95198.28;;;20.82;26.68
43711;BME280;29309;42.682;23.372;2023-02-22T09:09:05;95182.97;;;21.01;26.79
43711;BME280;29309;42.682;23.372;2023-02-22T09:11:30;95186.56;;;21.09;27.59
43711;BME280;29309;42.682;23.372;2023-02-22T09:13:56;95184.59;;;21.24;26.03
43711;BME280;29309;42.682;23.372;2023-02-22T09:16:21;95191.72;;;21.31;26.41
43711;BME280;29309;42.682;23.372;2023-02-22T09:18:47;95181.13;;;21.30;25.80
43711;BME280;29309;42.682;23.372;2023-02-22T09:21:12;95183.97;;;21.32;25.61
43711;BME280;29309;42.682;23.372;2023-02-22T09:23:38;95184.75;;;21.40;25.55
43711;BME280;29309;42.682;23.372;2023-02-22T09:26:03;95187.47;;;21.28;25.40
43711;BME280;29309;42.682;23.372;2023-02-22T09:28:29;95179.38;;;20.94;25.73
43711;BME280;29309;42.682;23.372;2023-02-22T09:30:54;95180.84;;;20.99;26.08
43711;BME280;29309;42.682;23.372;2023-02-22T09:33:21;95180.78;;;20.93;25.98
43711;BME280;29309;42.682;23.372;2023-02-22T09:35:47;95172.41;;;21.03;26.07
43711;BME280;29309;42.682;23.372;2023-02-22T09:38:23;95170.03;;;20.78;26.19
43711;BME280;29309;42.682;23.372;2023-02-22T09:41:17;95170.00;;;20.74;26.32
43711;BME280;29309;42.682;23.372;2023-02-22T09:44:09;95168.59;;;20.73;26.81
43711;BME280;29309;42.682;23.372;2023-02-22T09:46:32;95169.44;;;20.89;26.26
43711;BME280;29309;42.682;23.372;2023-02-22T09:51:50;95167.34;;;20.92;26.23
43711;BME280;29309;42.682;23.372;2023-02-22T09:56:47;95161.44;;;20.66;26.27
43711;BME280;29309;42.682;23.372;2023-02-22T09:59:18;95153.69;;;20.66;25.82
43711;BME280;29309;42.682;23.372;2023-02-22T10:01:48;95155.13;;;20.67;27.35
43711;BME280;29309;42.682;23.372;2023-02-22T10:04:21;95149.41;;;20.61;26.35
43711;BME280;29309;42.682;23.372;2023-02-22T10:07:02;95150.69;;;20.50;25.92
43711;BME280;29309;42.682;23.372;2023-02-22T10:09:33;95145.00;;;20.46;27.49
43711;BME280;29309;42.682;23.372;2023-02-22T10:12:17;95141.53;;;20.47;25.89
43711;BME280;29309;42.682;23.372;2023-02-22T10:25:26;95114.97;;;20.73;25.33
43711;BME280;29309;42.682;23.372;2023-02-22T10:28:01;95115.66;;;20.71;25.85
43711;BME280;29309;42.682;23.372;2023-02-22T10:30:46;95107.28;;;20.81;25.60
43711;BME280;29309;42.682;23.372;2023-02-22T10:33:40;95101.56;;;20.73;25.55
43711;BME280;29309;42.682;23.372;2023-02-22T10:36:19;95095.22;;;20.73;25.69
43711;BME280;29309;42.682;23.372;2023-02-22T10:39:01;95088.88;;;20.72;27.53
43711;BME280;29309;42.682;23.372;2023-02-22T10:41:40;95086.13;;;20.82;29.00
43711;BME280;29309;42.682;23.372;2023-02-22T10:44:09;95084.03;;;20.85;26.11
43711;BME280;29309;42.682;23.372;2023-02-22T10:46:34;95078.13;;;20.54;26.86
43711;BME280;29309;42.682;23.372;2023-02-22T10:49:04;95075.31;;;20.54;26.55
43711;BME280;29309;42.682;23.372;2023-02-22T10:51:32;95065.44;;;20.55;26.93
43711;BME280;29309;42.682;23.372;2023-02-22T10:56:52;95062.06;;;20.73;26.95
43711;BME280;29309;42.682;23.372;2023-02-22T10:59:37;95058.34;;;20.50;26.43
43711;BME280;29309;42.682;23.372;2023-02-22T11:02:28;95059.66;;;20.39;26.61
43711;BME280;29309;42.682;23.372;2023-02-22T11:04:57;95047.63;;;20.37;26.61
43711;BME280;29309;42.682;23.372;2023-02-22T11:07:32;95048.16;;;20.23;26.72
43711;BME280;29309;42.682;23.372;2023-02-22T11:10:00;95049.91;;;19.90;27.16
43711;BME280;29309;42.682;23.372;2023-02-22T11:12:32;95048.47;;;19.87;27.18
43711;BME280;29309;42.682;23.372;2023-02-22T11:15:25;95048.59;;;19.97;27.18
43711;BME280;29309;42.682;23.372;2023-02-22T11:17:55;95045.03;;;19.95;27.49
43711;BME280;29309;42.682;23.372;2023-02-22T11:20:28;95043.00;;;19.99;27.58
43711;BME280;29309;42.682;23.372;2023-02-22T11:22:59;95035.88;;;19.94;28.04
43711;BME280;29309;42.682;23.372;2023-02-22T11:25:31;95025.31;;;19.95;27.74
43711;BME280;29309;42.682;23.372;2023-02-22T11:28:20;95026.66;;;19.88;27.17
43711;BME280;29309;42.682;23.372;2023-02-22T11:30:56;95027.38;;;19.90;27.66
43711;BME280;29309;42.682;23.372;2023-02-22T11:33:24;95019.00;;;19.96;27.63
43711;BME280;29309;42.682;23.372;2023-02-22T11:35:59;95009.75;;;19.90;27.36
43711;BME280;29309;42.682;23.372;2023-02-22T11:38:31;95008.88;;;19.75;26.98
43711;BME280;29309;42.682;23.372;2023-02-22T11:41:36;95003.34;;;19.83;27.25
43711;BME280;29309;42.682;23.372;2023-02-22T11:44:31;94994.28;;;19.89;26.65
43711;BME280;29309;42.682;23.372;2023-02-22T11:46:59;95005.66;;;19.99;26.81
43711;BME280;29309;42.682;23.372;2023-02-22T11:49:36;95007.88;;;20.10;26.56
43711;BME280;29309;42.682;23.372;2023-02-22T11:52:26;95005.34;;;20.37;26.54
43711;BME280;29309;42.682;23.372;2023-02-22T11:55:32;94995.03;;;20.70;26.19
43711;BME280;29309;42.682;23.372;2023-02-22T11:58:37;94989.69;;;21.10;25.10
43711;BME280;29309;42.682;23.372;2023-02-22T12:06:52;94985.78;;;21.72;24.39
43711;BME280;29309;42.682;23.372;2023-02-22T12:14:25;94978.94;;;22.72;23.13
43711;BME280;29309;42.682;23.372;2023-02-22T12:19:43;94971.84;;;22.67;23.69
43711;BME280;29309;42.682;23.372;2023-02-22T12:22:21;94969.72;;;22.85;23.11
43711;BME280;29309;42.682;23.372;2023-02-22T12:25:16;94961.16;;;23.44;22.93
43711;BME280;29309;42.682;23.372;2023-02-22T12:27:50;94956.47;;;24.30;22.46
43711;BME280;29309;42.682;23.372;2023-02-22T12:30:27;94958.38;;;24.60;20.88
43711;BME280;29309;42.682;23.372;2023-02-22T12:32:57;94954.00;;;24.71;20.22
43711;BME280;29309;42.682;23.372;2023-02-22T12:35:33;94953.63;;;24.32;20.40
43711;BME280;29309;42.682;23.372;2023-02-22T12:40:55;94949.72;;;24.76;20.16
43711;BME280;29309;42.682;23.372;2023-02-22T12:43:29;94942.03;;;24.60;20.38
43711;BME280;29309;42.682;23.372;2023-02-22T12:46:05;94944.81;;;24.70;20.34
43711;BME280;29309;42.682;23.372;2023-02-22T12:48:50;94946.94;;;23.48;21.24
43711;BME280;29309;42.682;23.372;2023-02-22T12:53:51;94934.78;;;21.35;23.58
43711;BME280;29309;42.682;23.372;2023-02-22T12:56:40;94938.59;;;20.66;24.47
43711;BME280;29309;42.682;23.372;2023-02-22T12:59:40;94941.72;;;20.20;27.77
43711;BME280;29309;42.682;23.372;2023-02-22T13:02:17;94927.72;;;19.57;25.58
43711;BME280;29309;42.682;23.372;2023-02-22T13:04:45;94932.09;;;19.14;26.16
43711;BME280;29309;42.682;23.372;2023-02-22T13:12:21;94931.41;;;18.64;28.55
43711;BME280;29309;42.682;23.372;2023-02-22T13:15:03;94926.28;;;18.50;28.77
43711;BME280;29309;42.682;23.372;2023-02-22T13:17:45;94925.50;;;18.46;32.33
43711;BME280;29309;42.682;23.372;2023-02-22T13:20:25;94925.41;;;18.40;28.49
43711;BME280;29309;42.682;23.372;2023-02-22T13:26:03;94920.09;;;18.16;28.13
43711;BME280;29309;42.682;23.372;2023-02-22T13:28:38;94922.03;;;18.05;27.62
43711;BME280;29309;42.682;23.372;2023-02-22T13:37:32;94916.78;;;17.86;28.70
43711;BME280;29309;42.682;23.372;2023-02-22T13:40:00;94927.22;;;17.81;28.76
43711;BME280;29309;42.682;23.372;2023-02-22T13:53:14;94914.50;;;17.76;28.97
43711;BME280;29309;42.682;23.372;2023-02-22T13:55:42;94916.53;;;17.72;28.99
43711;BME280;29309;42.682;23.372;2023-02-22T13:58:12;94917.91;;;17.68;28.55
43711;BME280;29309;42.682;23.372;2023-02-22T14:00:48;94918.56;;;17.67;29.09
43711;BME280;29309;42.682;23.372;2023-02-22T14:10:45;94919.00;;;17.53;29.04
43711;BME280;29309;42.682;23.372;2023-02-22T14:13:11;94917.53;;;17.50;28.48
43711;BME280;29309;42.682;23.372;2023-02-22T14:18:29;94918.09;;;17.43;29.58
43711;BME280;29309;42.682;23.372;2023-02-22T14:23:43;94921.44;;;17.35;30.38
43711;BME280;29309;42.682;23.372;2023-02-22T14:39:36;94923.16;;;17.14;29.34
43711;BME280;29309;42.682;23.372;2023-02-22T14:47:21;94908.91;;;17.04;29.65
43711;BME280;29309;42.682;23.372;2023-02-22T14:49:55;94910.34;;;17.07;29.25
43711;BME280;29309;42.682;23.372;2023-02-22T14:52:27;94910.94;;;17.02;31.21
43711;BME280;29309;42.682;23.372;2023-02-22T14:54:59;94909.59;;;17.03;29.31
43711;BME280;29309;42.682;23.372;2023-02-22T14:57:50;94907.44;;;17.01;29.05
43711;BME280;29309;42.682;23.372;2023-02-22T15:00:27;94903.16;;;16.98;29.06
43711;BME280;29309;42.682;23.372;2023-02-22T15:02:57;94915.00;;;16.95;29.15
43711;BME280;29309;42.682;23.372;2023-02-22T15:05:26;94910.03;;;16.91;29.41
43711;BME280;29309;42.682;23.372;2023-02-22T15:08:00;94904.41;;;16.89;29.36
43711;BME280;29309;42.682;23.372;2023-02-22T15:10:29;94906.44;;;16.87;29.72
43711;BME280;29309;42.682;23.372;2023-02-22T15:13:03;94909.81;;;16.81;29.90
43711;BME280;29309;42.682;23.372;2023-02-22T15:15:37;94907.06;;;16.83;29.48
43711;BME280;29309;42.682;23.372;2023-02-22T15:18:04;94912.53;;;16.77;30.62
43711;BME280;29309;42.682;23.372;2023-02-22T15:20:36;94906.19;;;16.75;30.33
43711;BME280;29309;42.682;23.372;2023-02-22T15:23:02;94903.28;;;16.70;30.88